sensor_id;sensor_type;location;lat;lon;timestamp;pressure;altitude;pressure_sealevel;temperature;humidity
21828;BME280;11076;47.942;11.804;2023-05-15T00:02:28;93847.28;;;9.26;100.00
21828;BME280;11076;47.942;11.804;2023-05-15T00:07:31;93839.44;;;9.31;100.00
21828;BME280;11076;47.942;11.804;2023-05-15T00:12:33;93836.78;;;9.31;100.00
21828;BME280;11076;47.942;11.804;2023-05-15T00:17:36;93831.56;;;9.36;100.00
21828;BME280;11076;47.942;11.804;2023-05-15T00:22:38;93825.66;;;9.34;100.00
21828;BME280;11076;47.942;11.804;2023-05-15T00:27:40;93824.63;;;9.35;100.00
21828;BME280;11076;47.942;11.804;2023-05-15T00:32:43;93823.25;;;9.45;100.00
21828;BME280;11076;47.942;11.804;2023-05-15T00:37:45;93829.16;;;9.47;100.00
21828;BME280;11076;47.942;11.804;2023-05-15T00:42:48;93824.13;;;9.57;100.00
21828;BME280;11076;47.942;11.804;2023-05-15T00:47:52;93819.81;;;9.56;100.00
21828;BME280;11076;47.942;11.804;2023-05-15T00:52:56;93818.06;;;9.50;100.00
21828;BME280;11076;47.942;11.804;2023-05-15T00:58:00;93816.13;;;9.57;100.00
21828;BME280;11076;47.942;11.804;2023-05-15T01:03:04;93824.00;;;9.52;100.00
21828;BME280;11076;47.942;11.804;2023-05-15T01:08:40;93820.03;;;9.54;100.00
21828;BME280;11076;47.942;11.804;2023-05-15T01:13:43;93819.47;;;9.52;100.00
21828;BME280;11076;47.942;11.804;2023-05-15T01:18:45;93821.47;;;9.57;100.00
21828;BME280;11076;47.942;11.804;2023-05-15T01:34:22;93815.28;;;9.56;100.00
21828;BME280;11076;47.942;11.804;2023-05-15T01:39:31;93814.06;;;9.59;100.00
21828;BME280;11076;47.942;11.804;2023-05-15T01:44:36;93819.81;;;9.56;100.00
21828;BME280;11076;47.942;11.804;2023-05-15T01:49:42;93817.47;;;9.48;100.00
21828;BME280;11076;47.942;11.804;2023-05-15T01:54:48;93821.91;;;9.54;100.00
21828;BME280;11076;47.942;11.804;2023-05-15T01:59:51;93817.84;;;9.51;100.00
21828;BME280;11076;47.942;11.804;2023-05-15T02:04:55;93817.97;;;9.56;100.00
21828;BME280;11076;47.942;11.804;2023-05-15T02:09:58;93812.41;;;9.58;100.00
21828;BME280;11076;47.942;11.804;2023-05-15T02:15:02;93811.22;;;9.54;100.00
21828;BME280;11076;47.942;11.804;2023-05-15T02:20:05;93806.00;;;9.47;100.00
21828;BME280;11076;47.942;11.804;2023-05-15T02:25:08;93804.44;;;9.40;100.00
21828;BME280;11076;47.942;11.804;2023-05-15T02:35:28;93807.16;;;9.21;100.00
21828;BME280;11076;47.942;11.804;2023-05-15T02:40:35;93797.38;;;9.15;100.00
21828;BME280;11076;47.942;11.804;2023-05-15T02:45:40;93797.16;;;9.16;100.00
21828;BME280;11076;47.942;11.804;2023-05-15T02:50:43;93802.63;;;9.22;100.00
21828;BME280;11076;47.942;11.804;2023-05-15T02:55:46;93796.63;;;9.26;100.00
21828;BME280;11076;47.942;11.804;2023-05-15T03:00:49;93798.47;;;9.26;100.00
21828;BME280;11076;47.942;11.804;2023-05-15T03:05:51;93802.03;;;9.20;100.00
21828;BME280;11076;47.942;11.804;2023-05-15T03:10:53;93800.63;;;9.35;100.00
21828;BME280;11076;47.942;11.804;2023-05-15T03:15:56;93805.09;;;9.35;100.00
21828;BME280;11076;47.942;11.804;2023-05-15T03:20:58;93797.78;;;9.30;100.00
21828;BME280;11076;47.942;11.804;2023-05-15T03:26:01;93796.84;;;9.25;100.00
21828;BME280;11076;47.942;11.804;2023-05-15T03:31:03;93795.59;;;9.27;100.00
21828;BME280;11076;47.942;11.804;2023-05-15T03:36:11;93800.19;;;9.20;100.00
21828;BME280;11076;47.942;11.804;2023-05-15T03:41:14;93787.91;;;9.19;100.00
21828;BME280;11076;47.942;11.804;2023-05-15T03:46:16;93795.75;;;9.14;100.00
21828;BME280;11076;47.942;11.804;2023-05-15T03:51:19;93800.03;;;9.15;100.00
21828;BME280;11076;47.942;11.804;2023-05-15T03:56:21;93801.38;;;9.24;100.00
21828;BME280;11076;47.942;11.804;2023-05-15T04:01:24;93797.19;;;9.28;100.00
21828;BME280;11076;47.942;11.804;2023-05-15T04:06:26;93798.25;;;9.27;100.00
21828;BME280;11076;47.942;11.804;2023-05-15T04:11:29;93810.41;;;9.23;100.00
21828;BME280;11076;47.942;11.804;2023-05-15T04:16:31;93811.22;;;9.24;100.00
21828;BME280;11076;47.942;11.804;2023-05-15T04:21:34;93805.09;;;9.23;100.00
21828;BME280;11076;47.942;11.804;2023-05-15T04:26:36;93804.19;;;9.29;100.00
21828;BME280;11076;47.942;11.804;2023-05-15T04:31:38;93810.09;;;9.31;100.00
21828;BME280;11076;47.942;11.804;2023-05-15T04:36:41;93804.88;;;9.36;100.00
21828;BME280;11076;47.942;11.804;2023-05-15T04:41:44;93807.25;;;9.45;100.00
21828;BME280;11076;47.942;11.804;2023-05-15T04:46:46;93808.56;;;9.54;100.00
21828;BME280;11076;47.942;11.804;2023-05-15T04:51:49;93813.13;;;9.65;100.00
21828;BME280;11076;47.942;11.804;2023-05-15T04:56:51;93809.41;;;9.66;100.00
21828;BME280;11076;47.942;11.804;2023-05-15T05:01:53;93813.41;;;9.75;100.00
21828;BME280;11076;47.942;11.804;2023-05-15T05:06:56;93825.16;;;9.86;100.00
21828;BME280;11076;47.942;11.804;2023-05-15T05:11:59;93819.13;;;9.91;100.00
21828;BME280;11076;47.942;11.804;2023-05-15T05:17:02;93824.50;;;10.03;100.00
21828;BME280;11076;47.942;11.804;2023-05-15T05:22:05;93828.69;;;10.10;100.00
21828;BME280;11076;47.942;11.804;2023-05-15T05:27:07;93839.06;;;10.19;100.00
21828;BME280;11076;47.942;11.804;2023-05-15T05:32:09;93837.06;;;10.26;100.00
21828;BME280;11076;47.942;11.804;2023-05-15T05:37:12;93844.13;;;10.39;100.00
21828;BME280;11076;47.942;11.804;2023-05-15T05:42:14;93848.63;;;10.38;100.00
21828;BME280;11076;47.942;11.804;2023-05-15T05:47:16;93850.63;;;10.43;100.00
21828;BME280;11076;47.942;11.804;2023-05-15T05:52:19;93851.44;;;10.43;100.00
21828;BME280;11076;47.942;11.804;2023-05-15T05:57:21;93851.03;;;10.28;100.00
21828;BME280;11076;47.942;11.804;2023-05-15T06:02:24;93854.88;;;10.32;100.00
21828;BME280;11076;47.942;11.804;2023-05-15T06:07:26;93855.72;;;10.56;100.00
21828;BME280;11076;47.942;11.804;2023-05-15T06:12:29;93861.22;;;10.73;100.00
21828;BME280;11076;47.942;11.804;2023-05-15T06:17:31;93858.88;;;10.65;100.00
21828;BME280;11076;47.942;11.804;2023-05-15T06:22:34;93864.59;;;10.68;100.00
21828;BME280;11076;47.942;11.804;2023-05-15T06:27:37;93874.22;;;10.58;100.00
21828;BME280;11076;47.942;11.804;2023-05-15T06:32:40;93867.56;;;10.60;100.00
21828;BME280;11076;47.942;11.804;2023-05-15T06:37:42;93872.13;;;10.71;100.00
21828;BME280;11076;47.942;11.804;2023-05-15T06:42:45;93876.19;;;10.62;100.00
21828;BME280;11076;47.942;11.804;2023-05-15T06:47:48;93877.25;;;10.73;100.00
21828;BME280;11076;47.942;11.804;2023-05-15T06:52:50;93884.69;;;10.94;100.00
21828;BME280;11076;47.942;11.804;2023-05-15T06:57:53;93891.22;;;10.99;100.00
21828;BME280;11076;47.942;11.804;2023-05-15T07:02:55;93892.38;;;11.03;100.00
21828;BME280;11076;47.942;11.804;2023-05-15T07:07:58;93894.22;;;10.90;100.00
21828;BME280;11076;47.942;11.804;2023-05-15T07:13:00;93898.63;;;11.20;100.00
21828;BME280;11076;47.942;11.804;2023-05-15T07:18:03;93900.00;;;11.34;100.00
21828;BME280;11076;47.942;11.804;2023-05-15T07:23:05;93891.88;;;11.82;100.00
21828;BME280;11076;47.942;11.804;2023-05-15T07:28:07;93889.13;;;12.68;100.00
21828;BME280;11076;47.942;11.804;2023-05-15T07:33:10;93889.00;;;13.13;100.00
21828;BME280;11076;47.942;11.804;2023-05-15T07:38:12;93891.09;;;13.67;100.00
21828;BME280;11076;47.942;11.804;2023-05-15T07:43:14;93890.78;;;14.13;100.00
21828;BME280;11076;47.942;11.804;2023-05-15T07:48:19;93890.56;;;14.15;100.00
21828;BME280;11076;47.942;11.804;2023-05-15T07:53:21;93884.91;;;14.70;100.00
21828;BME280;11076;47.942;11.804;2023-05-15T07:58:24;93880.13;;;15.15;100.00
21828;BME280;11076;47.942;11.804;2023-05-15T08:03:27;93874.03;;;15.35;98.35
21828;BME280;11076;47.942;11.804;2023-05-15T08:08:29;93875.22;;;15.07;95.55
21828;BME280;11076;47.942;11.804;2023-05-15T08:13:32;93871.28;;;14.82;88.98
21828;BME280;11076;47.942;11.804;2023-05-15T08:18:34;93868.28;;;15.16;87.98
21828;BME280;11076;47.942;11.804;2023-05-15T08:23:37;93880.69;;;15.70;90.64
21828;BME280;11076;47.942;11.804;2023-05-15T08:28:40;93876.75;;;15.88;90.43
21828;BME280;11076;47.942;11.804;2023-05-15T08:33:43;93872.50;;;16.13;88.17
21828;BME280;11076;47.942;11.804;2023-05-15T08:38:45;93883.38;;;16.48;82.31
21828;BME280;11076;47.942;11.804;2023-05-15T08:43:48;93875.84;;;17.17;81.50
21828;BME280;11076;47.942;11.804;2023-05-15T08:48:53;93879.38;;;16.87;73.54
21828;BME280;11076;47.942;11.804;2023-05-15T08:53:57;93872.63;;;16.84;74.39
21828;BME280;11076;47.942;11.804;2023-05-15T08:58:59;93870.97;;;17.24;72.95
21828;BME280;11076;47.942;11.804;2023-05-15T09:04:02;93868.84;;;17.06;68.75
21828;BME280;11076;47.942;11.804;2023-05-15T09:09:05;93855.03;;;17.28;68.63
21828;BME280;11076;47.942;11.804;2023-05-15T09:14:10;93845.59;;;17.05;71.41
21828;BME280;11076;47.942;11.804;2023-05-15T09:19:14;93850.66;;;17.42;69.93
21828;BME280;11076;47.942;11.804;2023-05-15T09:24:21;93851.75;;;17.36;67.31
21828;BME280;11076;47.942;11.804;2023-05-15T09:29:26;93852.28;;;17.38;69.41
21828;BME280;11076;47.942;11.804;2023-05-15T09:34:33;93842.50;;;17.63;71.82
21828;BME280;11076;47.942;11.804;2023-05-15T09:39:40;93843.59;;;17.62;70.74
21828;BME280;11076;47.942;11.804;2023-05-15T09:44:44;93847.50;;;16.68;69.92
21828;BME280;11076;47.942;11.804;2023-05-15T09:49:47;93858.13;;;15.28;77.08
21828;BME280;11076;47.942;11.804;2023-05-15T09:54:50;93866.13;;;14.48;82.79
21828;BME280;11076;47.942;11.804;2023-05-15T09:59:53;93853.97;;;14.13;85.26
21828;BME280;11076;47.942;11.804;2023-05-15T10:04:56;93854.78;;;14.41;86.70
21828;BME280;11076;47.942;11.804;2023-05-15T10:09:59;93854.47;;;14.65;87.66
21828;BME280;11076;47.942;11.804;2023-05-15T10:15:04;93852.69;;;15.18;87.91
21828;BME280;11076;47.942;11.804;2023-05-15T10:20:07;93844.72;;;16.02;87.95
21828;BME280;11076;47.942;11.804;2023-05-15T10:30:22;93830.28;;;17.76;82.03
21828;BME280;11076;47.942;11.804;2023-05-15T10:35:26;93822.75;;;17.73;79.75
21828;BME280;11076;47.942;11.804;2023-05-15T10:40:29;93807.78;;;17.25;77.72
21828;BME280;11076;47.942;11.804;2023-05-15T10:45:34;93817.34;;;17.62;78.83
21828;BME280;11076;47.942;11.804;2023-05-15T10:50:36;93813.91;;;18.12;78.38
21828;BME280;11076;47.942;11.804;2023-05-15T10:55:39;93811.06;;;19.06;75.03
21828;BME280;11076;47.942;11.804;2023-05-15T11:00:43;93795.63;;;19.79;71.72
21828;BME280;11076;47.942;11.804;2023-05-15T11:06:08;93794.88;;;20.16;69.34
21828;BME280;11076;47.942;11.804;2023-05-15T11:11:53;93797.72;;;18.06;72.43
21828;BME280;11076;47.942;11.804;2023-05-15T11:16:59;93798.88;;;17.25;73.67
21828;BME280;11076;47.942;11.804;2023-05-15T11:27:11;93801.81;;;17.28;76.09
21828;BME280;11076;47.942;11.804;2023-05-15T11:37:43;93793.81;;;16.41;75.54
21828;BME280;11076;47.942;11.804;2023-05-15T11:48:07;93821.59;;;15.53;76.26
21828;BME280;11076;47.942;11.804;2023-05-15T11:53:10;93824.06;;;15.07;78.68
21828;BME280;11076;47.942;11.804;2023-05-15T11:58:16;93818.94;;;14.36;81.39
21828;BME280;11076;47.942;11.804;2023-05-15T12:03:31;93826.63;;;14.22;82.06
21828;BME280;11076;47.942;11.804;2023-05-15T12:08:35;93815.78;;;14.44;83.96
21828;BME280;11076;47.942;11.804;2023-05-15T12:13:41;93822.16;;;15.02;82.54
21828;BME280;11076;47.942;11.804;2023-05-15T12:18:46;93824.19;;;15.90;79.94
21828;BME280;11076;47.942;11.804;2023-05-15T12:23:52;93816.19;;;16.42;78.18
21828;BME280;11076;47.942;11.804;2023-05-15T12:29:01;93824.00;;;16.33;78.23
21828;BME280;11076;47.942;11.804;2023-05-15T12:34:04;93807.84;;;16.43;78.63
21828;BME280;11076;47.942;11.804;2023-05-15T12:39:06;93802.69;;;16.37;79.50
21828;BME280;11076;47.942;11.804;2023-05-15T12:44:16;93807.53;;;16.14;81.21
21828;BME280;11076;47.942;11.804;2023-05-15T12:49:22;93799.94;;;15.90;82.93
21828;BME280;11076;47.942;11.804;2023-05-15T12:54:25;93793.50;;;15.28;85.19
21828;BME280;11076;47.942;11.804;2023-05-15T12:59:27;93793.97;;;15.10;85.42
21828;BME280;11076;47.942;11.804;2023-05-15T13:04:33;93805.94;;;14.92;86.91
21828;BME280;11076;47.942;11.804;2023-05-15T13:09:36;93825.06;;;14.90;88.25
21828;BME280;11076;47.942;11.804;2023-05-15T13:14:38;93835.72;;;14.48;90.29
21828;BME280;11076;47.942;11.804;2023-05-15T13:19:43;93854.31;;;13.95;94.52
21828;BME280;11076;47.942;11.804;2023-05-15T13:24:45;93868.78;;;13.67;97.02
21828;BME280;11076;47.942;11.804;2023-05-15T13:29:47;93872.03;;;13.47;99.41
21828;BME280;11076;47.942;11.804;2023-05-15T13:34:50;93869.59;;;13.28;100.00
21828;BME280;11076;47.942;11.804;2023-05-15T13:39:55;93880.53;;;13.22;100.00
21828;BME280;11076;47.942;11.804;2023-05-15T13:44:58;93884.47;;;12.97;100.00
21828;BME280;11076;47.942;11.804;2023-05-15T13:50:01;93887.88;;;12.92;100.00
21828;BME280;11076;47.942;11.804;2023-05-15T13:55:04;93890.13;;;13.01;100.00
21828;BME280;11076;47.942;11.804;2023-05-15T14:00:09;93887.59;;;13.11;100.00
21828;BME280;11076;47.942;11.804;2023-05-15T14:05:14;93877.81;;;13.61;100.00
21828;BME280;11076;47.942;11.804;2023-05-15T14:10:17;93869.03;;;14.15;100.00
21828;BME280;11076;47.942;11.804;2023-05-15T14:15:19;93858.47;;;15.00;100.00
21828;BME280;11076;47.942;11.804;2023-05-15T14:20:22;93858.13;;;15.34;99.81
21828;BME280;11076;47.942;11.804;2023-05-15T14:25:24;93861.31;;;15.25;98.39
21828;BME280;11076;47.942;11.804;2023-05-15T14:30:27;93859.56;;;14.99;97.64
21828;BME280;11076;47.942;11.804;2023-05-15T14:35:29;93869.66;;;14.81;95.97
21828;BME280;11076;47.942;11.804;2023-05-15T14:40:31;93863.97;;;14.78;96.62
21828;BME280;11076;47.942;11.804;2023-05-15T14:45:34;93856.50;;;14.90;96.70
21828;BME280;11076;47.942;11.804;2023-05-15T14:50:36;93850.34;;;14.89;94.85
21828;BME280;11076;47.942;11.804;2023-05-15T14:55:39;93850.13;;;15.49;91.53
21828;BME280;11076;47.942;11.804;2023-05-15T15:00:41;93849.47;;;15.79;88.56
21828;BME280;11076;47.942;11.804;2023-05-15T15:05:44;93847.19;;;16.24;87.87
21828;BME280;11076;47.942;11.804;2023-05-15T15:10:46;93839.88;;;16.09;85.66
21828;BME280;11076;47.942;11.804;2023-05-15T15:15:48;93844.41;;;15.93;84.48
21828;BME280;11076;47.942;11.804;2023-05-15T15:20:51;93851.19;;;16.06;83.63
21828;BME280;11076;47.942;11.804;2023-05-15T15:25:54;93856.88;;;16.09;85.79
21828;BME280;11076;47.942;11.804;2023-05-15T15:30:56;93857.72;;;15.57;85.73
21828;BME280;11076;47.942;11.804;2023-05-15T15:35:58;93848.75;;;16.04;83.37
21828;BME280;11076;47.942;11.804;2023-05-15T15:41:01;93858.78;;;15.51;86.19
21828;BME280;11076;47.942;11.804;2023-05-15T15:46:04;93875.59;;;15.21;86.14
21828;BME280;11076;47.942;11.804;2023-05-15T15:51:07;93870.44;;;14.82;87.15
21828;BME280;11076;47.942;11.804;2023-05-15T15:56:09;93882.38;;;14.31;90.14
21828;BME280;11076;47.942;11.804;2023-05-15T16:01:11;93874.75;;;13.96;92.03
21828;BME280;11076;47.942;11.804;2023-05-15T16:06:14;93874.28;;;13.55;90.25
21828;BME280;11076;47.942;11.804;2023-05-15T16:11:16;93862.63;;;13.27;89.53
21828;BME280;11076;47.942;11.804;2023-05-15T16:16:19;93878.03;;;13.15;91.03
21828;BME280;11076;47.942;11.804;2023-05-15T16:21:22;93869.47;;;13.18;91.57
21828;BME280;11076;47.942;11.804;2023-05-15T16:26:24;93872.44;;;13.00;91.93
21828;BME280;11076;47.942;11.804;2023-05-15T16:31:27;93873.28;;;12.83;92.71
21828;BME280;11076;47.942;11.804;2023-05-15T16:36:30;93878.22;;;12.91;92.81
21828;BME280;11076;47.942;11.804;2023-05-15T16:41:33;93886.19;;;13.03;93.92
21828;BME280;11076;47.942;11.804;2023-05-15T16:46:36;93897.56;;;12.93;96.52
21828;BME280;11076;47.942;11.804;2023-05-15T16:51:39;93881.75;;;13.14;96.24
21828;BME280;11076;47.942;11.804;2023-05-15T16:56:41;93876.63;;;13.12;97.07
21828;BME280;11076;47.942;11.804;2023-05-15T17:01:44;93884.06;;;13.05;97.55
21828;BME280;11076;47.942;11.804;2023-05-15T17:06:46;93882.50;;;12.92;98.25
21828;BME280;11076;47.942;11.804;2023-05-15T17:11:49;93886.25;;;12.74;98.68
21828;BME280;11076;47.942;11.804;2023-05-15T17:16:51;93884.16;;;12.60;99.60
21828;BME280;11076;47.942;11.804;2023-05-15T17:21:53;93888.69;;;12.76;100.00
21828;BME280;11076;47.942;11.804;2023-05-15T17:26:56;93878.50;;;12.95;99.61
21828;BME280;11076;47.942;11.804;2023-05-15T17:31:58;93884.06;;;13.05;99.40
21828;BME280;11076;47.942;11.804;2023-05-15T17:37:01;93882.94;;;12.84;100.00
21828;BME280;11076;47.942;11.804;2023-05-15T17:42:03;93877.75;;;13.33;98.63
21828;BME280;11076;47.942;11.804;2023-05-15T17:47:08;93886.91;;;12.65;100.00
21828;BME280;11076;47.942;11.804;2023-05-15T17:52:11;93897.25;;;12.27;100.00
21828;BME280;11076;47.942;11.804;2023-05-15T17:57:14;93898.72;;;11.89;100.00
21828;BME280;11076;47.942;11.804;2023-05-15T18:02:16;93907.19;;;11.46;100.00
21828;BME280;11076;47.942;11.804;2023-05-15T18:07:21;93919.22;;;11.08;100.00
21828;BME280;11076;47.942;11.804;2023-05-15T18:12:24;93911.88;;;10.80;100.00
21828;BME280;11076;47.942;11.804;2023-05-15T18:17:27;93924.06;;;10.64;100.00
21828;BME280;11076;47.942;11.804;2023-05-15T18:22:30;93924.28;;;10.39;100.00
21828;BME280;11076;47.942;11.804;2023-05-15T18:27:32;93935.34;;;10.24;100.00
21828;BME280;11076;47.942;11.804;2023-05-15T18:32:35;93952.38;;;10.11;100.00
21828;BME280;11076;47.942;11.804;2023-05-15T18:37:37;93952.91;;;10.01;100.00
21828;BME280;11076;47.942;11.804;2023-05-15T18:42:40;93949.59;;;9.87;100.00
21828;BME280;11076;47.942;11.804;2023-05-15T18:47:42;93946.22;;;9.62;100.00
21828;BME280;11076;47.942;11.804;2023-05-15T18:52:44;93964.06;;;9.43;100.00
21828;BME280;11076;47.942;11.804;2023-05-15T18:57:47;93964.06;;;9.24;100.00
21828;BME280;11076;47.942;11.804;2023-05-15T19:02:49;93963.44;;;9.04;100.00
21828;BME280;11076;47.942;11.804;2023-05-15T19:07:52;93969.50;;;8.92;100.00
21828;BME280;11076;47.942;11.804;2023-05-15T19:12:54;93964.44;;;8.84;100.00
21828;BME280;11076;47.942;11.804;2023-05-15T19:17:57;93968.28;;;8.88;100.00
21828;BME280;11076;47.942;11.804;2023-05-15T19:22:59;93974.81;;;8.92;100.00
21828;BME280;11076;47.942;11.804;2023-05-15T19:28:02;93975.81;;;8.98;100.00
21828;BME280;11076;47.942;11.804;2023-05-15T19:33:05;93976.78;;;9.04;100.00
21828;BME280;11076;47.942;11.804;2023-05-15T19:38:07;93974.53;;;9.01;100.00
21828;BME280;11076;47.942;11.804;2023-05-15T19:43:10;93979.56;;;8.90;100.00
21828;BME280;11076;47.942;11.804;2023-05-15T19:48:12;93980.59;;;8.89;100.00
21828;BME280;11076;47.942;11.804;2023-05-15T19:53:14;93984.47;;;8.93;100.00
21828;BME280;11076;47.942;11.804;2023-05-15T19:58:17;93978.00;;;9.01;100.00
21828;BME280;11076;47.942;11.804;2023-05-15T20:03:20;93977.31;;;9.12;100.00
21828;BME280;11076;47.942;11.804;2023-05-15T20:08:23;93977.03;;;9.21;100.00
21828;BME280;11076;47.942;11.804;2023-05-15T20:13:25;93968.59;;;9.24;100.00
21828;BME280;11076;47.942;11.804;2023-05-15T20:18:30;93974.00;;;9.35;100.00
21828;BME280;11076;47.942;11.804;2023-05-15T20:23:34;93976.81;;;9.41;100.00
21828;BME280;11076;47.942;11.804;2023-05-15T20:28:36;93976.38;;;9.44;100.00
21828;BME280;11076;47.942;11.804;2023-05-15T20:33:38;93980.16;;;9.36;100.00
21828;BME280;11076;47.942;11.804;2023-05-15T20:38:41;93973.13;;;9.42;100.00
21828;BME280;11076;47.942;11.804;2023-05-15T20:43:45;93974.81;;;9.36;100.00
21828;BME280;11076;47.942;11.804;2023-05-15T20:48:48;93972.00;;;9.31;100.00
21828;BME280;11076;47.942;11.804;2023-05-15T20:53:50;93975.84;;;9.35;100.00
21828;BME280;11076;47.942;11.804;2023-05-15T20:58:52;93973.72;;;9.44;100.00
21828;BME280;11076;47.942;11.804;2023-05-15T21:03:55;93975.50;;;9.50;100.00
21828;BME280;11076;47.942;11.804;2023-05-15T21:08:57;93974.59;;;9.56;100.00
21828;BME280;11076;47.942;11.804;2023-05-15T21:14:00;93977.06;;;9.58;100.00
21828;BME280;11076;47.942;11.804;2023-05-15T21:19:02;93977.44;;;9.61;100.00
21828;BME280;11076;47.942;11.804;2023-05-15T21:24:05;93973.28;;;9.65;100.00
21828;BME280;11076;47.942;11.804;2023-05-15T21:29:08;93986.03;;;9.63;100.00
21828;BME280;11076;47.942;11.804;2023-05-15T21:34:10;93976.53;;;9.67;100.00
21828;BME280;11076;47.942;11.804;2023-05-15T21:39:12;93984.09;;;9.70;100.00
21828;BME280;11076;47.942;11.804;2023-05-15T21:44:16;93981.41;;;9.70;100.00
21828;BME280;11076;47.942;11.804;2023-05-15T21:49:18;93981.41;;;9.70;100.00
21828;BME280;11076;47.942;11.804;2023-05-15T21:54:21;93990.47;;;9.69;100.00
21828;BME280;11076;47.942;11.804;2023-05-15T21:59:23;93993.75;;;9.71;100.00
21828;BME280;11076;47.942;11.804;2023-05-15T22:04:26;93993.88;;;9.76;100.00
21828;BME280;11076;47.942;11.804;2023-05-15T22:09:31;93994.91;;;9.75;100.00
21828;BME280;11076;47.942;11.804;2023-05-15T22:14:33;93992.47;;;9.74;100.00
21828;BME280;11076;47.942;11.804;2023-05-15T22:19:36;94001.75;;;9.71;100.00
21828;BME280;11076;47.942;11.804;2023-05-15T22:24:38;94004.41;;;9.71;100.00
21828;BME280;11076;47.942;11.804;2023-05-15T22:29:41;94005.13;;;9.79;100.00
21828;BME280;11076;47.942;11.804;2023-05-15T22:34:43;94006.31;;;9.83;100.00
21828;BME280;11076;47.942;11.804;2023-05-15T22:39:45;94006.94;;;9.85;100.00
21828;BME280;11076;47.942;11.804;2023-05-15T22:44:48;94004.28;;;9.85;100.00
21828;BME280;11076;47.942;11.804;2023-05-15T22:49:51;94008.56;;;9.86;100.00
21828;BME280;11076;47.942;11.804;2023-05-15T22:54:53;93997.28;;;9.84;100.00
21828;BME280;11076;47.942;11.804;2023-05-15T22:59:55;93995.22;;;9.86;100.00
21828;BME280;11076;47.942;11.804;2023-05-15T23:04:58;93997.56;;;9.94;100.00
21828;BME280;11076;47.942;11.804;2023-05-15T23:10:00;93990.75;;;9.98;100.00
21828;BME280;11076;47.942;11.804;2023-05-15T23:15:03;93983.41;;;9.93;100.00
21828;BME280;11076;47.942;11.804;2023-05-15T23:20:06;93976.69;;;9.91;100.00
21828;BME280;11076;47.942;11.804;2023-05-15T23:25:11;93990.63;;;9.93;100.00
21828;BME280;11076;47.942;11.804;2023-05-15T23:30:14;93975.03;;;9.90;100.00
21828;BME280;11076;47.942;11.804;2023-05-15T23:35:16;93974.00;;;9.91;100.00
21828;BME280;11076;47.942;11.804;2023-05-15T23:40:19;93971.34;;;9.91;100.00
21828;BME280;11076;47.942;11.804;2023-05-15T23:45:21;93966.00;;;9.91;100.00
21828;BME280;11076;47.942;11.804;2023-05-15T23:50:24;93971.19;;;9.86;100.00
21828;BME280;11076;47.942;11.804;2023-05-15T23:55:26;93972.94;;;9.92;100.00
